sensor_id;sensor_type;location;lat;lon;timestamp;pressure;altitude;pressure_sealevel;temperature;humidity
72110;BME280;59983;52.010;5.420;2022-09-28T00:00:40;99641.34;;;8.48;98.91
72110;BME280;59983;52.010;5.420;2022-09-28T00:03:08;99635.94;;;8.48;98.87
72110;BME280;59983;52.010;5.420;2022-09-28T00:05:34;99641.34;;;8.48;98.93
72110;BME280;59983;52.010;5.420;2022-09-28T00:08:01;99647.81;;;8.44;98.46
72110;BME280;59983;52.010;5.420;2022-09-28T00:10:27;99639.59;;;8.37;98.46
72110;BME280;59983;52.010;5.420;2022-09-28T00:12:54;99645.28;;;8.32;98.42
72110;BME280;59983;52.010;5.420;2022-09-28T00:15:21;99646.84;;;8.33;98.48
72110;BME280;59983;52.010;5.420;2022-09-28T00:17:47;99641.00;;;8.31;98.14
72110;BME280;59983;52.010;5.420;2022-09-28T00:20:14;99650.31;;;8.33;98.52
72110;BME280;59983;52.010;5.420;2022-09-28T00:22:42;99641.44;;;8.33;98.38
72110;BME280;59983;52.010;5.420;2022-09-28T00:25:09;99642.66;;;8.35;98.51
72110;BME280;59983;52.010;5.420;2022-09-28T00:27:35;99640.28;;;8.34;98.37
72110;BME280;59983;52.010;5.420;2022-09-28T00:30:02;99647.31;;;8.38;98.62
72110;BME280;59983;52.010;5.420;2022-09-28T00:32:29;99655.03;;;8.36;98.47
72110;BME280;59983;52.010;5.420;2022-09-28T00:34:55;99643.75;;;8.34;98.27
72110;BME280;59983;52.010;5.420;2022-09-28T00:37:22;99648.06;;;8.35;98.20
72110;BME280;59983;52.010;5.420;2022-09-28T00:39:48;99643.44;;;8.36;98.33
72110;BME280;59983;52.010;5.420;2022-09-28T00:42:25;99643.63;;;8.27;98.16
72110;BME280;59983;52.010;5.420;2022-09-28T00:44:53;99638.88;;;8.20;98.01
72110;BME280;59983;52.010;5.420;2022-09-28T00:47:28;99643.44;;;8.16;98.18
72110;BME280;59983;52.010;5.420;2022-09-28T00:50:02;99634.00;;;8.07;97.85
72110;BME280;59983;52.010;5.420;2022-09-28T00:52:35;99635.78;;;7.99;97.96
72110;BME280;59983;52.010;5.420;2022-09-28T00:55:07;99630.66;;;7.94;98.12
72110;BME280;59983;52.010;5.420;2022-09-28T00:57:35;99620.16;;;7.89;98.07
72110;BME280;59983;52.010;5.420;2022-09-28T01:00:04;99624.47;;;7.93;98.16
72110;BME280;59983;52.010;5.420;2022-09-28T01:02:31;99623.66;;;7.89;98.10
72110;BME280;59983;52.010;5.420;2022-09-28T01:04:58;99623.91;;;7.84;98.13
72110;BME280;59983;52.010;5.420;2022-09-28T01:07:25;99621.94;;;7.81;98.04
72110;BME280;59983;52.010;5.420;2022-09-28T01:09:52;99627.13;;;7.90;98.15
72110;BME280;59983;52.010;5.420;2022-09-28T01:12:19;99621.31;;;7.88;98.11
72110;BME280;59983;52.010;5.420;2022-09-28T01:14:45;99627.41;;;7.85;98.04
72110;BME280;59983;52.010;5.420;2022-09-28T01:17:15;99625.16;;;7.87;98.30
72110;BME280;59983;52.010;5.420;2022-09-28T01:25:39;99619.81;;;7.90;98.24
72110;BME280;59983;52.010;5.420;2022-09-28T01:28:17;99619.09;;;7.93;98.54
72110;BME280;59983;52.010;5.420;2022-09-28T01:31:05;99613.78;;;7.97;98.53
72110;BME280;59983;52.010;5.420;2022-09-28T01:33:41;99619.53;;;7.95;98.24
72110;BME280;59983;52.010;5.420;2022-09-28T01:36:26;99614.81;;;7.92;98.27
72110;BME280;59983;52.010;5.420;2022-09-28T01:39:00;99625.22;;;7.90;98.26
72110;BME280;59983;52.010;5.420;2022-09-28T01:41:29;99622.50;;;7.90;98.34
72110;BME280;59983;52.010;5.420;2022-09-28T01:43:59;99610.88;;;7.86;98.23
72110;BME280;59983;52.010;5.420;2022-09-28T01:46:39;99611.34;;;7.92;98.37
72110;BME280;59983;52.010;5.420;2022-09-28T01:49:15;99611.84;;;7.98;98.67
72110;BME280;59983;52.010;5.420;2022-09-28T01:54:24;99616.88;;;7.99;98.42
72110;BME280;59983;52.010;5.420;2022-09-28T02:00:04;99614.63;;;7.82;98.46
72110;BME280;59983;52.010;5.420;2022-09-28T02:02:38;99614.63;;;7.82;98.50
72110;BME280;59983;52.010;5.420;2022-09-28T02:05:20;99612.69;;;7.82;98.47
72110;BME280;59983;52.010;5.420;2022-09-28T02:07:56;99604.25;;;7.84;98.51
72110;BME280;59983;52.010;5.420;2022-09-28T02:10:32;99610.00;;;7.82;98.53
72110;BME280;59983;52.010;5.420;2022-09-28T02:13:05;99616.13;;;7.79;98.41
72110;BME280;59983;52.010;5.420;2022-09-28T02:15:45;99610.72;;;7.79;98.53
72110;BME280;59983;52.010;5.420;2022-09-28T02:18:14;99623.78;;;7.77;98.34
72110;BME280;59983;52.010;5.420;2022-09-28T02:20:41;99612.97;;;7.77;98.49
72110;BME280;59983;52.010;5.420;2022-09-28T02:23:12;99611.09;;;7.78;98.65
72110;BME280;59983;52.010;5.420;2022-09-28T02:25:46;99614.56;;;7.78;98.43
72110;BME280;59983;52.010;5.420;2022-09-28T02:28:15;99611.78;;;7.75;98.25
72110;BME280;59983;52.010;5.420;2022-09-28T02:30:43;99613.63;;;7.71;98.32
72110;BME280;59983;52.010;5.420;2022-09-28T02:33:23;99618.38;;;7.77;98.82
72110;BME280;59983;52.010;5.420;2022-09-28T02:35:52;99615.13;;;7.87;98.86
72110;BME280;59983;52.010;5.420;2022-09-28T02:38:18;99609.56;;;8.00;98.93
72110;BME280;59983;52.010;5.420;2022-09-28T02:40:53;99614.69;;;8.05;98.55
72110;BME280;59983;52.010;5.420;2022-09-28T02:43:27;99616.59;;;8.04;98.69
72110;BME280;59983;52.010;5.420;2022-09-28T02:46:23;99609.06;;;8.13;98.48
72110;BME280;59983;52.010;5.420;2022-09-28T02:49:05;99609.88;;;8.17;98.64
72110;BME280;59983;52.010;5.420;2022-09-28T02:55:18;99616.84;;;8.18;98.20
72110;BME280;59983;52.010;5.420;2022-09-28T03:00:18;99616.84;;;8.18;98.11
72110;BME280;59983;52.010;5.420;2022-09-28T03:05:20;99622.75;;;8.24;98.29
72110;BME280;59983;52.010;5.420;2022-09-28T03:08:06;99620.09;;;8.28;98.26
72110;BME280;59983;52.010;5.420;2022-09-28T03:10:40;99619.72;;;8.29;97.92
72110;BME280;59983;52.010;5.420;2022-09-28T03:13:11;99620.06;;;8.24;98.08
72110;BME280;59983;52.010;5.420;2022-09-28T03:15:38;99617.81;;;8.30;97.99
72110;BME280;59983;52.010;5.420;2022-09-28T03:18:13;99620.88;;;8.28;98.00
72110;BME280;59983;52.010;5.420;2022-09-28T03:20:39;99623.41;;;8.17;97.69
72110;BME280;59983;52.010;5.420;2022-09-28T03:23:06;99618.94;;;8.06;97.48
72110;BME280;59983;52.010;5.420;2022-09-28T03:25:49;99621.94;;;8.01;97.89
72110;BME280;59983;52.010;5.420;2022-09-28T03:28:16;99623.78;;;7.97;97.88
72110;BME280;59983;52.010;5.420;2022-09-28T03:30:42;99625.22;;;7.90;97.67
72110;BME280;59983;52.010;5.420;2022-09-28T03:33:09;99624.22;;;7.79;97.74
72110;BME280;59983;52.010;5.420;2022-09-28T03:35:35;99630.81;;;7.82;98.06
72110;BME280;59983;52.010;5.420;2022-09-28T03:38:02;99629.97;;;7.78;97.79
72110;BME280;59983;52.010;5.420;2022-09-28T03:40:28;99623.72;;;7.74;97.86
72110;BME280;59983;52.010;5.420;2022-09-28T03:42:55;99626.78;;;7.72;97.93
72110;BME280;59983;52.010;5.420;2022-09-28T03:45:21;99628.69;;;7.72;98.09
72110;BME280;59983;52.010;5.420;2022-09-28T03:47:48;99630.88;;;7.66;97.82
72110;BME280;59983;52.010;5.420;2022-09-28T03:50:14;99622.00;;;7.65;97.75
72110;BME280;59983;52.010;5.420;2022-09-28T03:52:41;99625.84;;;7.64;97.69
72110;BME280;59983;52.010;5.420;2022-09-28T03:55:08;99618.81;;;7.60;97.90
72110;BME280;59983;52.010;5.420;2022-09-28T03:57:35;99620.22;;;7.54;97.36
72110;BME280;59983;52.010;5.420;2022-09-28T04:00:03;99614.25;;;7.45;97.51
72110;BME280;59983;52.010;5.420;2022-09-28T04:02:30;99616.19;;;7.44;97.76
72110;BME280;59983;52.010;5.420;2022-09-28T04:04:56;99613.75;;;7.39;97.37
72110;BME280;59983;52.010;5.420;2022-09-28T04:07:23;99614.72;;;7.31;97.24
72110;BME280;59983;52.010;5.420;2022-09-28T04:09:55;99613.09;;;7.26;96.97
72110;BME280;59983;52.010;5.420;2022-09-28T04:12:21;99609.91;;;7.21;97.38
72110;BME280;59983;52.010;5.420;2022-09-28T04:14:48;99614.31;;;7.29;97.55
72110;BME280;59983;52.010;5.420;2022-09-28T04:17:14;99607.00;;;7.29;97.31
72110;BME280;59983;52.010;5.420;2022-09-28T04:19:41;99610.41;;;7.26;97.06
72110;BME280;59983;52.010;5.420;2022-09-28T04:22:07;99620.25;;;7.19;97.08
72110;BME280;59983;52.010;5.420;2022-09-28T04:24:34;99623.72;;;7.19;97.17
72110;BME280;59983;52.010;5.420;2022-09-28T04:27:00;99624.44;;;7.16;97.05
72110;BME280;59983;52.010;5.420;2022-09-28T04:29:45;99624.72;;;7.11;97.12
72110;BME280;59983;52.010;5.420;2022-09-28T04:32:11;99628.53;;;7.10;97.09
72110;BME280;59983;52.010;5.420;2022-09-28T04:34:38;99631.19;;;6.91;96.73
72110;BME280;59983;52.010;5.420;2022-09-28T04:37:09;99634.41;;;6.80;96.90
72110;BME280;59983;52.010;5.420;2022-09-28T04:39:35;99628.13;;;6.76;97.04
72110;BME280;59983;52.010;5.420;2022-09-28T04:42:02;99629.81;;;6.81;97.24
72110;BME280;59983;52.010;5.420;2022-09-28T04:44:28;99633.34;;;6.85;97.05
72110;BME280;59983;52.010;5.420;2022-09-28T04:46:55;99641.09;;;6.87;97.14
72110;BME280;59983;52.010;5.420;2022-09-28T04:49:21;99637.88;;;6.81;97.06
72110;BME280;59983;52.010;5.420;2022-09-28T04:51:49;99636.66;;;6.78;96.88
72110;BME280;59983;52.010;5.420;2022-09-28T04:54:16;99636.94;;;6.73;96.97
72110;BME280;59983;52.010;5.420;2022-09-28T04:56:42;99635.78;;;6.74;96.88
72110;BME280;59983;52.010;5.420;2022-09-28T04:59:09;99641.97;;;6.75;96.41
72110;BME280;59983;52.010;5.420;2022-09-28T05:01:35;99645.34;;;6.56;96.01
72110;BME280;59983;52.010;5.420;2022-09-28T05:04:03;99638.94;;;6.45;96.35
72110;BME280;59983;52.010;5.420;2022-09-28T05:06:29;99647.00;;;6.45;96.31
72110;BME280;59983;52.010;5.420;2022-09-28T05:08:56;99637.88;;;6.49;96.50
72110;BME280;59983;52.010;5.420;2022-09-28T05:11:22;99645.34;;;6.40;95.93
72110;BME280;59983;52.010;5.420;2022-09-28T05:13:49;99652.56;;;6.36;96.47
72110;BME280;59983;52.010;5.420;2022-09-28T05:16:16;99642.09;;;6.35;95.90
72110;BME280;59983;52.010;5.420;2022-09-28T05:18:42;99640.88;;;6.32;96.34
72110;BME280;59983;52.010;5.420;2022-09-28T05:21:10;99640.97;;;6.36;96.45
72110;BME280;59983;52.010;5.420;2022-09-28T05:23:39;99641.09;;;6.39;96.69
72110;BME280;59983;52.010;5.420;2022-09-28T05:26:06;99644.19;;;6.41;96.80
72110;BME280;59983;52.010;5.420;2022-09-28T05:28:32;99649.69;;;6.45;97.34
72110;BME280;59983;52.010;5.420;2022-09-28T05:31:00;99647.28;;;6.56;96.80
72110;BME280;59983;52.010;5.420;2022-09-28T05:33:28;99651.69;;;6.48;96.82
72110;BME280;59983;52.010;5.420;2022-09-28T05:35:56;99654.75;;;6.46;96.63
72110;BME280;59983;52.010;5.420;2022-09-28T05:38:27;99650.22;;;6.50;97.18
72110;BME280;59983;52.010;5.420;2022-09-28T05:40:54;99651.09;;;6.55;97.01
72110;BME280;59983;52.010;5.420;2022-09-28T05:43:21;99654.66;;;6.59;96.99
72110;BME280;59983;52.010;5.420;2022-09-28T05:45:47;99665.97;;;6.64;97.03
72110;BME280;59983;52.010;5.420;2022-09-28T05:48:20;99666.97;;;6.60;96.94
72110;BME280;59983;52.010;5.420;2022-09-28T05:50:51;99662.47;;;6.64;97.49
72110;BME280;59983;52.010;5.420;2022-09-28T05:53:18;99669.00;;;6.78;97.71
72110;BME280;59983;52.010;5.420;2022-09-28T05:55:44;99664.47;;;6.82;97.39
72110;BME280;59983;52.010;5.420;2022-09-28T05:58:11;99660.66;;;6.84;97.05
72110;BME280;59983;52.010;5.420;2022-09-28T06:00:38;99665.44;;;6.74;96.81
72110;BME280;59983;52.010;5.420;2022-09-28T06:03:07;99667.53;;;6.65;96.61
72110;BME280;59983;52.010;5.420;2022-09-28T06:05:36;99664.28;;;6.60;96.97
72110;BME280;59983;52.010;5.420;2022-09-28T06:08:05;99665.97;;;6.64;97.11
72110;BME280;59983;52.010;5.420;2022-09-28T06:10:32;99662.91;;;6.66;96.96
72110;BME280;59983;52.010;5.420;2022-09-28T06:12:59;99661.84;;;6.70;97.12
72110;BME280;59983;52.010;5.420;2022-09-28T06:15:27;99662.81;;;6.78;97.62
72110;BME280;59983;52.010;5.420;2022-09-28T06:17:58;99664.66;;;6.90;97.67
72110;BME280;59983;52.010;5.420;2022-09-28T06:20:26;99667.44;;;6.93;97.77
72110;BME280;59983;52.010;5.420;2022-09-28T06:22:54;99662.22;;;7.00;97.82
72110;BME280;59983;52.010;5.420;2022-09-28T06:25:22;99665.34;;;7.02;97.64
72110;BME280;59983;52.010;5.420;2022-09-28T06:27:53;99674.97;;;7.03;97.63
72110;BME280;59983;52.010;5.420;2022-09-28T06:30:20;99671.16;;;7.04;97.69
72110;BME280;59983;52.010;5.420;2022-09-28T06:32:51;99672.81;;;7.09;97.72
72110;BME280;59983;52.010;5.420;2022-09-28T06:35:17;99678.03;;;7.18;97.92
72110;BME280;59983;52.010;5.420;2022-09-28T06:37:44;99673.56;;;7.25;97.85
72110;BME280;59983;52.010;5.420;2022-09-28T06:40:10;99667.53;;;7.32;97.89
72110;BME280;59983;52.010;5.420;2022-09-28T06:42:37;99671.19;;;7.39;97.99
72110;BME280;59983;52.010;5.420;2022-09-28T06:45:04;99666.38;;;7.49;98.04
72110;BME280;59983;52.010;5.420;2022-09-28T06:47:31;99674.63;;;7.56;98.11
72110;BME280;59983;52.010;5.420;2022-09-28T06:49:58;99673.44;;;7.73;98.38
72110;BME280;59983;52.010;5.420;2022-09-28T06:52:25;99681.84;;;7.87;98.17
72110;BME280;59983;52.010;5.420;2022-09-28T06:54:51;99678.78;;;7.88;97.96
72110;BME280;59983;52.010;5.420;2022-09-28T06:57:18;99683.59;;;7.99;98.00
72110;BME280;59983;52.010;5.420;2022-09-28T06:59:44;99679.56;;;8.08;98.21
72110;BME280;59983;52.010;5.420;2022-09-28T07:02:11;99685.25;;;8.22;97.97
72110;BME280;59983;52.010;5.420;2022-09-28T07:04:42;99692.34;;;8.31;97.83
72110;BME280;59983;52.010;5.420;2022-09-28T07:07:10;99692.97;;;8.43;98.07
72110;BME280;59983;52.010;5.420;2022-09-28T07:09:37;99684.69;;;8.56;97.86
72110;BME280;59983;52.010;5.420;2022-09-28T07:12:11;99689.88;;;8.64;97.77
72110;BME280;59983;52.010;5.420;2022-09-28T07:14:38;99694.63;;;8.71;97.61
72110;BME280;59983;52.010;5.420;2022-09-28T07:17:13;99704.91;;;8.85;97.61
72110;BME280;59983;52.010;5.420;2022-09-28T07:19:40;99707.00;;;8.95;97.53
72110;BME280;59983;52.010;5.420;2022-09-28T07:22:07;99709.75;;;8.98;97.45
72110;BME280;59983;52.010;5.420;2022-09-28T07:24:33;99709.16;;;9.08;97.71
72110;BME280;59983;52.010;5.420;2022-09-28T07:26:59;99717.09;;;9.21;97.93
72110;BME280;59983;52.010;5.420;2022-09-28T07:29:29;99717.97;;;9.28;98.05
72110;BME280;59983;52.010;5.420;2022-09-28T07:31:56;99722.28;;;9.33;98.08
72110;BME280;59983;52.010;5.420;2022-09-28T07:34:22;99722.69;;;9.35;97.41
72110;BME280;59983;52.010;5.420;2022-09-28T07:36:49;99731.66;;;9.39;97.39
72110;BME280;59983;52.010;5.420;2022-09-28T07:39:17;99725.66;;;9.53;97.82
72110;BME280;59983;52.010;5.420;2022-09-28T07:41:43;99730.16;;;9.68;97.63
72110;BME280;59983;52.010;5.420;2022-09-28T07:44:09;99731.41;;;9.74;97.54
72110;BME280;59983;52.010;5.420;2022-09-28T07:46:36;99734.66;;;9.87;97.74
72110;BME280;59983;52.010;5.420;2022-09-28T07:49:03;99731.34;;;10.01;98.14
72110;BME280;59983;52.010;5.420;2022-09-28T07:51:37;99738.44;;;10.09;97.27
72110;BME280;59983;52.010;5.420;2022-09-28T07:54:04;99743.94;;;10.16;97.30
72110;BME280;59983;52.010;5.420;2022-09-28T07:56:31;99746.44;;;10.28;97.70
72110;BME280;59983;52.010;5.420;2022-09-28T07:59:00;99741.19;;;10.42;96.49
72110;BME280;59983;52.010;5.420;2022-09-28T08:01:26;99737.38;;;10.50;96.40
72110;BME280;59983;52.010;5.420;2022-09-28T08:03:53;99749.53;;;10.64;95.91
72110;BME280;59983;52.010;5.420;2022-09-28T08:06:21;99739.53;;;10.71;95.70
72110;BME280;59983;52.010;5.420;2022-09-28T08:08:48;99738.00;;;10.74;95.18
72110;BME280;59983;52.010;5.420;2022-09-28T08:11:16;99734.63;;;10.84;95.03
72110;BME280;59983;52.010;5.420;2022-09-28T08:13:45;99740.56;;;10.97;95.00
72110;BME280;59983;52.010;5.420;2022-09-28T08:16:11;99739.81;;;11.03;94.37
72110;BME280;59983;52.010;5.420;2022-09-28T08:18:38;99747.69;;;11.16;93.58
72110;BME280;59983;52.010;5.420;2022-09-28T08:21:05;99741.59;;;11.29;94.64
72110;BME280;59983;52.010;5.420;2022-09-28T08:23:50;99740.94;;;11.47;93.92
72110;BME280;59983;52.010;5.420;2022-09-28T08:26:16;99754.63;;;11.57;93.14
72110;BME280;59983;52.010;5.420;2022-09-28T08:28:43;99757.41;;;11.72;92.80
72110;BME280;59983;52.010;5.420;2022-09-28T08:31:10;99757.44;;;11.79;92.64
72110;BME280;59983;52.010;5.420;2022-09-28T08:33:37;99752.88;;;11.90;92.24
72110;BME280;59983;52.010;5.420;2022-09-28T08:36:03;99755.28;;;12.02;90.70
72110;BME280;59983;52.010;5.420;2022-09-28T08:38:31;99763.06;;;12.07;91.34
72110;BME280;59983;52.010;5.420;2022-09-28T08:46:46;99766.59;;;12.15;88.22
72110;BME280;59983;52.010;5.420;2022-09-28T08:49:19;99765.09;;;12.21;88.33
72110;BME280;59983;52.010;5.420;2022-09-28T08:52:02;99767.44;;;12.30;88.83
72110;BME280;59983;52.010;5.420;2022-09-28T08:57:23;99767.09;;;12.45;86.89
72110;BME280;59983;52.010;5.420;2022-09-28T08:59:53;99765.13;;;12.35;86.25
72110;BME280;59983;52.010;5.420;2022-09-28T09:02:27;99774.41;;;12.27;86.91
72110;BME280;59983;52.010;5.420;2022-09-28T09:04:54;99776.25;;;12.05;86.45
72110;BME280;59983;52.010;5.420;2022-09-28T09:16:08;99788.78;;;12.28;88.26
72110;BME280;59983;52.010;5.420;2022-09-28T09:19:05;99785.28;;;12.27;86.78
72110;BME280;59983;52.010;5.420;2022-09-28T09:30:08;99790.28;;;12.18;85.93
72110;BME280;59983;52.010;5.420;2022-09-28T09:43:49;99795.09;;;12.53;83.68
72110;BME280;59983;52.010;5.420;2022-09-28T09:46:45;99809.16;;;12.66;84.10
72110;BME280;59983;52.010;5.420;2022-09-28T09:49:15;99807.19;;;12.63;83.35
72110;BME280;59983;52.010;5.420;2022-09-28T09:51:47;99811.88;;;12.66;84.74
72110;BME280;59983;52.010;5.420;2022-09-28T09:54:27;99798.25;;;12.66;84.15
72110;BME280;59983;52.010;5.420;2022-09-28T09:57:00;99789.69;;;12.57;80.46
72110;BME280;59983;52.010;5.420;2022-09-28T09:59:31;99802.91;;;12.55;80.77
72110;BME280;59983;52.010;5.420;2022-09-28T10:02:06;99804.09;;;12.68;80.19
72110;BME280;59983;52.010;5.420;2022-09-28T10:04:42;99797.09;;;12.70;79.58
72110;BME280;59983;52.010;5.420;2022-09-28T10:07:21;99799.47;;;12.83;80.46
72110;BME280;59983;52.010;5.420;2022-09-28T10:09:50;99804.19;;;13.00;78.87
72110;BME280;59983;52.010;5.420;2022-09-28T10:12:19;99809.63;;;13.14;79.24
72110;BME280;59983;52.010;5.420;2022-09-28T10:14:46;99812.75;;;13.16;77.24
72110;BME280;59983;52.010;5.420;2022-09-28T10:17:16;99807.31;;;13.09;76.71
72110;BME280;59983;52.010;5.420;2022-09-28T10:19:45;99803.00;;;13.04;75.88
72110;BME280;59983;52.010;5.420;2022-09-28T10:22:17;99803.78;;;13.01;76.13
72110;BME280;59983;52.010;5.420;2022-09-28T10:24:48;99801.06;;;13.05;74.96
72110;BME280;59983;52.010;5.420;2022-09-28T10:27:18;99802.25;;;13.11;74.92
72110;BME280;59983;52.010;5.420;2022-09-28T10:29:55;99801.50;;;13.21;74.94
72110;BME280;59983;52.010;5.420;2022-09-28T10:32:25;99801.13;;;13.26;74.96
72110;BME280;59983;52.010;5.420;2022-09-28T10:34:53;99804.22;;;13.32;74.26
72110;BME280;59983;52.010;5.420;2022-09-28T10:37:46;99801.53;;;13.36;74.85
72110;BME280;59983;52.010;5.420;2022-09-28T10:40:26;99799.19;;;13.34;74.60
72110;BME280;59983;52.010;5.420;2022-09-28T10:43:00;99801.13;;;13.48;73.75
72110;BME280;59983;52.010;5.420;2022-09-28T10:45:33;99802.28;;;13.47;74.05
72110;BME280;59983;52.010;5.420;2022-09-28T10:48:04;99805.00;;;13.50;72.29
72110;BME280;59983;52.010;5.420;2022-09-28T10:50:31;99808.13;;;13.49;74.43
72110;BME280;59983;52.010;5.420;2022-09-28T10:53:16;99798.41;;;13.48;74.05
72110;BME280;59983;52.010;5.420;2022-09-28T10:56:05;99797.22;;;13.67;74.55
72110;BME280;59983;52.010;5.420;2022-09-28T10:58:38;99802.28;;;13.75;75.06
72110;BME280;59983;52.010;5.420;2022-09-28T11:01:09;99797.59;;;13.72;75.36
72110;BME280;59983;52.010;5.420;2022-09-28T11:03:47;99796.84;;;13.65;72.18
72110;BME280;59983;52.010;5.420;2022-09-28T11:06:22;99801.09;;;13.76;71.53
72110;BME280;59983;52.010;5.420;2022-09-28T11:08:49;99798.00;;;13.67;70.80
72110;BME280;59983;52.010;5.420;2022-09-28T11:11:16;99805.81;;;13.62;72.36
72110;BME280;59983;52.010;5.420;2022-09-28T11:13:53;99806.97;;;13.60;72.41
72110;BME280;59983;52.010;5.420;2022-09-28T11:16:29;99811.25;;;13.54;73.47
72110;BME280;59983;52.010;5.420;2022-09-28T11:18:57;99804.63;;;13.55;73.31
72110;BME280;59983;52.010;5.420;2022-09-28T11:21:29;99799.94;;;13.59;71.34
72110;BME280;59983;52.010;5.420;2022-09-28T11:24:20;99804.22;;;13.57;71.05
72110;BME280;59983;52.010;5.420;2022-09-28T11:26:51;99804.63;;;13.59;71.45
72110;BME280;59983;52.010;5.420;2022-09-28T11:29:40;99798.41;;;13.55;72.13
72110;BME280;59983;52.010;5.420;2022-09-28T11:32:07;99809.69;;;13.50;70.96
72110;BME280;59983;52.010;5.420;2022-09-28T11:34:45;99799.97;;;13.52;70.60
72110;BME280;59983;52.010;5.420;2022-09-28T11:42:45;99797.19;;;13.88;70.71
72110;BME280;59983;52.010;5.420;2022-09-28T11:45:42;99799.53;;;13.97;69.45
72110;BME280;59983;52.010;5.420;2022-09-28T11:48:20;99801.81;;;14.02;69.32
72110;BME280;59983;52.010;5.420;2022-09-28T11:50:52;99788.97;;;14.02;67.87
72110;BME280;59983;52.010;5.420;2022-09-28T11:53:33;99803.41;;;13.99;68.13
72110;BME280;59983;52.010;5.420;2022-09-28T11:56:32;99792.88;;;13.94;68.80
72110;BME280;59983;52.010;5.420;2022-09-28T12:01:43;99794.78;;;14.11;68.25
72110;BME280;59983;52.010;5.420;2022-09-28T12:04:20;99799.88;;;14.09;70.13
72110;BME280;59983;52.010;5.420;2022-09-28T12:06:52;99793.25;;;14.14;69.41
72110;BME280;59983;52.010;5.420;2022-09-28T12:09:30;99793.19;;;14.21;69.54
72110;BME280;59983;52.010;5.420;2022-09-28T12:12:03;99792.03;;;14.22;69.41
72110;BME280;59983;52.010;5.420;2022-09-28T12:14:33;99800.22;;;14.18;68.83
72110;BME280;59983;52.010;5.420;2022-09-28T12:17:23;99803.81;;;13.98;70.28
72110;BME280;59983;52.010;5.420;2022-09-28T12:19:57;99813.97;;;13.72;74.92
72110;BME280;59983;52.010;5.420;2022-09-28T12:22:37;99819.03;;;13.38;79.23
72110;BME280;59983;52.010;5.420;2022-09-28T12:25:13;99820.09;;;12.94;83.22
72110;BME280;59983;52.010;5.420;2022-09-28T12:27:46;99832.06;;;12.58;85.88
72110;BME280;59983;52.010;5.420;2022-09-28T12:30:23;99812.97;;;12.51;90.68
72110;BME280;59983;52.010;5.420;2022-09-28T12:33:03;99813.41;;;12.60;93.14
72110;BME280;59983;52.010;5.420;2022-09-28T12:41:18;99819.88;;;12.30;93.84
72110;BME280;59983;52.010;5.420;2022-09-28T12:47:04;99808.53;;;12.10;93.70
72110;BME280;59983;52.010;5.420;2022-09-28T12:52:47;99824.00;;;12.03;95.15
72110;BME280;59983;52.010;5.420;2022-09-28T13:01:12;99808.97;;;12.23;97.87
72110;BME280;59983;52.010;5.420;2022-09-28T13:04:07;99816.00;;;12.35;97.70
72110;BME280;59983;52.010;5.420;2022-09-28T13:07:04;99815.28;;;12.45;98.73
72110;BME280;59983;52.010;5.420;2022-09-28T13:10:21;99809.88;;;12.52;98.57
72110;BME280;59983;52.010;5.420;2022-09-28T13:15:39;99821.06;;;12.33;97.24
72110;BME280;59983;52.010;5.420;2022-09-28T13:21:04;99828.63;;;11.95;94.76
72110;BME280;59983;52.010;5.420;2022-09-28T13:23:40;99826.50;;;11.74;94.63
72110;BME280;59983;52.010;5.420;2022-09-28T13:28:37;99848.78;;;11.46;93.77
72110;BME280;59983;52.010;5.420;2022-09-28T13:31:05;99852.50;;;11.27;93.00
72110;BME280;59983;52.010;5.420;2022-09-28T13:33:38;99853.94;;;11.18;94.63
72110;BME280;59983;52.010;5.420;2022-09-28T13:38:55;99849.66;;;11.13;94.94
72110;BME280;59983;52.010;5.420;2022-09-28T13:41:37;99839.16;;;11.12;97.21
72110;BME280;59983;52.010;5.420;2022-09-28T13:50:12;99844.97;;;10.76;98.85
72110;BME280;59983;52.010;5.420;2022-09-28T13:52:46;99839.72;;;10.57;99.55
72110;BME280;59983;52.010;5.420;2022-09-28T13:58:05;99853.06;;;10.39;99.25
72110;BME280;59983;52.010;5.420;2022-09-28T14:00:49;99854.16;;;10.35;99.33
72110;BME280;59983;52.010;5.420;2022-09-28T14:03:40;99849.47;;;10.32;99.20
72110;BME280;59983;52.010;5.420;2022-09-28T14:06:22;99856.00;;;10.27;99.43
72110;BME280;59983;52.010;5.420;2022-09-28T14:11:40;99850.25;;;10.32;99.63
72110;BME280;59983;52.010;5.420;2022-09-28T14:16:37;99851.19;;;10.43;100.00
72110;BME280;59983;52.010;5.420;2022-09-28T14:19:08;99852.03;;;10.51;100.00
72110;BME280;59983;52.010;5.420;2022-09-28T14:21:49;99852.91;;;10.59;100.00
72110;BME280;59983;52.010;5.420;2022-09-28T14:27:21;99853.56;;;10.82;100.00
72110;BME280;59983;52.010;5.420;2022-09-28T14:30:04;99842.03;;;10.89;100.00
72110;BME280;59983;52.010;5.420;2022-09-28T14:32:32;99847.16;;;10.97;100.00
72110;BME280;59983;52.010;5.420;2022-09-28T14:35:06;99844.53;;;11.04;100.00
72110;BME280;59983;52.010;5.420;2022-09-28T17:55:12;99952.09;;;10.90;100.00
72110;BME280;59983;52.010;5.420;2022-09-28T17:57:39;99948.91;;;10.84;100.00
72110;BME280;59983;52.010;5.420;2022-09-28T18:00:06;99953.81;;;10.71;100.00
72110;BME280;59983;52.010;5.420;2022-09-28T18:02:33;99949.44;;;10.63;100.00
72110;BME280;59983;52.010;5.420;2022-09-28T18:04:59;99945.47;;;10.57;100.00
72110;BME280;59983;52.010;5.420;2022-09-28T18:07:26;99950.44;;;10.52;99.87
72110;BME280;59983;52.010;5.420;2022-09-28T18:09:56;99951.94;;;10.49;100.00
72110;BME280;59983;52.010;5.420;2022-09-28T18:12:23;99955.44;;;10.49;100.00
72110;BME280;59983;52.010;5.420;2022-09-28T18:14:50;99951.50;;;10.43;100.00
72110;BME280;59983;52.010;5.420;2022-09-28T18:17:17;99961.91;;;10.41;100.00
72110;BME280;59983;52.010;5.420;2022-09-28T18:19:43;99956.03;;;10.36;100.00
72110;BME280;59983;52.010;5.420;2022-09-28T18:22:10;99956.72;;;10.33;100.00
72110;BME280;59983;52.010;5.420;2022-09-28T18:24:36;99963.25;;;10.28;99.91
72110;BME280;59983;52.010;5.420;2022-09-28T18:27:03;99963.91;;;10.21;100.00
72110;BME280;59983;52.010;5.420;2022-09-28T18:29:29;99962.34;;;10.20;100.00
72110;BME280;59983;52.010;5.420;2022-09-28T18:31:59;99963.00;;;10.14;100.00
72110;BME280;59983;52.010;5.420;2022-09-28T18:34:25;99963.34;;;10.12;100.00